Time;durP1;ratioP1;P1;durP2;ratioP2;P2;SDS_P1;SDS_P2;PMS_P1;PMS_P2;Temp;Humidity;BMP_temperature;BMP_pressure;BME280_temperature;BME280_humidity;BME280_pressure;Samples;Min_cycle;Max_cycle;Signal;HPM_P1;HPM_P2
2022/01/13 00:01:08;;;;;;;20.63;15.70;;;2.60;99.90;;;;;;5014173;28;20277;-58
2022/01/13 00:03:34;;;;;;;23.00;15.43;;;2.70;99.90;;;;;;5013581;28;20321;-59
2022/01/13 00:06:01;;;;;;;19.70;15.03;;;2.80;99.90;;;;;;5013870;28;20266;-58
2022/01/13 00:08:28;;;;;;;20.17;14.40;;;2.80;99.90;;;;;;5014048;28;20642;-58
2022/01/13 00:10:54;;;;;;;20.63;15.63;;;2.80;99.90;;;;;;5013966;28;20209;-58
2022/01/13 00:13:25;;;;;;;19.20;14.53;;;2.80;99.90;;;;;;5013438;28;20226;-58
2022/01/13 00:16:22;;;;;;;19.80;14.87;;;2.80;99.90;;;;;;5013880;28;20221;-58
2022/01/13 00:18:47;;;;;;;18.43;14.67;;;2.90;99.90;;;;;;5013392;28;20611;-58
2022/01/13 00:21:17;;;;;;;18.37;15.00;;;2.90;99.90;;;;;;5013746;28;20361;-58
2022/01/13 00:23:46;;;;;;;19.33;14.83;;;3.10;99.90;;;;;;5042145;23;20712;-62
2022/01/13 00:26:20;;;;;;;18.50;13.60;;;3.30;99.90;;;;;;5033187;28;20294;-62
2022/01/13 00:28:51;;;;;;;19.73;14.30;;;3.40;99.90;;;;;;5033187;28;20629;-62
2022/01/13 00:31:23;;;;;;;16.53;13.43;;;3.50;99.90;;;;;;5033160;28;20746;-62
2022/01/13 00:33:54;;;;;;;16.53;14.17;;;3.60;99.90;;;;;;5032639;28;20788;-62
2022/01/13 00:36:21;;;;;;;21.17;14.60;;;3.60;99.90;;;;;;5033042;28;20700;-62
2022/01/13 00:38:48;;;;;;;17.87;14.03;;;3.40;99.90;;;;;;5032911;28;20218;-61
2022/01/13 00:41:15;;;;;;;18.60;14.30;;;3.10;99.90;;;;;;5032786;28;20210;-62
2022/01/13 00:43:42;;;;;;;17.87;13.83;;;2.80;99.90;;;;;;5032144;28;20234;-62
2022/01/13 00:46:18;;;;;;;19.17;14.60;;;2.70;99.90;;;;;;5032904;28;20578;-62
2022/01/13 00:48:44;;;;;;;20.33;15.53;;;2.80;99.90;;;;;;5032907;28;20237;-62
2022/01/13 00:51:11;;;;;;;17.67;14.10;;;3.00;99.90;;;;;;5032813;28;20213;-62
2022/01/13 00:53:38;;;;;;;19.80;15.07;;;3.20;99.90;;;;;;5032297;28;20222;-62
2022/01/13 00:56:05;;;;;;;19.43;15.00;;;3.30;99.90;;;;;;5032430;28;20210;-62
2022/01/13 00:58:34;;;;;;;21.63;15.13;;;3.30;99.90;;;;;;5032633;28;20206;-62
2022/01/13 01:01:03;;;;;;;21.30;14.87;;;3.40;99.90;;;;;;5032559;28;20214;-62
2022/01/13 01:03:32;;;;;;;16.57;13.63;;;3.50;99.90;;;;;;5032126;28;20645;-62
2022/01/13 01:05:59;;;;;;;19.90;14.83;;;3.60;99.90;;;;;;5032323;28;20272;-62
2022/01/13 01:08:26;;;;;;;20.33;14.80;;;3.70;99.90;;;;;;5032254;28;20229;-62
2022/01/13 01:10:55;;;;;;;16.90;14.00;;;3.80;99.90;;;;;;5032397;28;20214;-62
2022/01/13 01:13:28;;;;;;;18.83;14.63;;;3.80;99.90;;;;;;5032234;28;20610;-62
2022/01/13 01:15:57;;;;;;;18.73;14.43;;;3.90;99.90;;;;;;5032353;28;20673;-62
2022/01/13 01:18:31;;;;;;;18.63;14.50;;;3.90;99.90;;;;;;5032626;28;20658;-62
2022/01/13 01:21:30;;;;;;;19.87;15.13;;;4.00;99.90;;;;;;5032183;28;20225;-62
2022/01/13 01:26:43;;;;;;;19.27;14.50;;;4.10;99.90;;;;;;5032180;28;20585;-62
2022/01/13 01:29:18;;;;;;;17.80;14.50;;;4.20;99.90;;;;;;5031965;28;20673;-62
2022/01/13 01:31:48;;;;;;;17.93;14.30;;;4.20;99.90;;;;;;5032064;28;20760;-62
2022/01/13 01:34:28;;;;;;;19.30;15.13;;;4.20;99.90;;;;;;5031583;28;20716;-61
2022/01/13 01:36:56;;;;;;;17.87;14.57;;;4.20;99.90;;;;;;5031894;28;20217;-62
2022/01/13 01:39:23;;;;;;;18.60;14.53;;;4.30;99.90;;;;;;5031948;28;20688;-61
2022/01/13 01:41:52;;;;;;;21.60;15.27;;;4.30;99.90;;;;;;5031791;28;20260;-61
2022/01/13 01:44:25;;;;;;;17.63;14.43;;;4.00;99.90;;;;;;5031734;28;20237;-61
2022/01/13 01:46:52;;;;;;;17.00;14.23;;;3.70;99.90;;;;;;5032070;28;20215;-61
2022/01/13 01:49:21;;;;;;;17.13;13.90;;;3.50;99.90;;;;;;5031834;28;20260;-61
2022/01/13 01:51:52;;;;;;;19.03;14.63;;;3.50;99.90;;;;;;5032022;28;20210;-62
2022/01/13 01:54:20;;;;;;;20.73;14.70;;;3.60;99.90;;;;;;5031462;28;20222;-62
2022/01/13 01:56:46;;;;;;;18.10;14.27;;;3.70;99.90;;;;;;5031611;28;20636;-62
2022/01/13 01:59:17;;;;;;;18.33;14.50;;;3.50;99.90;;;;;;5031938;28;20210;-62
2022/01/13 02:01:46;;;;;;;19.37;15.07;;;3.40;99.90;;;;;;5031836;28;20210;-62
2022/01/13 02:04:13;;;;;;;16.77;13.73;;;3.50;99.90;;;;;;5031321;28;20225;-61
2022/01/13 02:06:41;;;;;;;20.90;14.83;;;3.50;99.90;;;;;;5031619;28;20206;-61
2022/01/13 02:09:09;;;;;;;20.47;15.90;;;3.50;99.90;;;;;;5031577;28;20272;-62
2022/01/13 02:11:43;;;;;;;19.73;14.50;;;3.60;99.90;;;;;;5031861;28;20210;-62
2022/01/13 02:14:32;;;;;;;19.37;14.07;;;3.70;99.90;;;;;;5031587;28;20229;-62
2022/01/13 02:17:00;;;;;;;17.77;14.37;;;3.90;99.90;;;;;;5032543;28;20682;-62
2022/01/13 02:19:27;;;;;;;18.27;14.10;;;3.90;99.90;;;;;;5036090;28;20206;-62
2022/01/13 02:21:55;;;;;;;19.93;15.00;;;4.00;99.90;;;;;;5035583;28;20211;-61
2022/01/13 02:24:22;;;;;;;20.17;14.73;;;4.10;99.90;;;;;;5034998;28;20237;-62
2022/01/13 02:26:49;;;;;;;18.00;14.50;;;4.10;99.90;;;;;;5035494;28;20263;-61
2022/01/13 02:29:15;;;;;;;19.73;15.10;;;4.10;99.90;;;;;;5035302;28;20665;-62
2022/01/13 02:31:43;;;;;;;18.50;14.87;;;4.10;99.90;;;;;;5035387;28;20243;-62
2022/01/13 02:34:09;;;;;;;20.47;15.23;;;4.20;99.90;;;;;;5034716;28;20253;-62
2022/01/13 02:36:37;;;;;;;22.10;15.40;;;4.20;99.90;;;;;;5035325;28;20733;-62
2022/01/13 02:39:05;;;;;;;19.07;15.80;;;4.20;99.90;;;;;;5035160;28;20206;-62
2022/01/13 02:41:32;;;;;;;20.60;14.90;;;4.20;99.90;;;;;;5035239;28;20210;-62
2022/01/13 02:44:00;;;;;;;19.03;15.10;;;4.30;99.90;;;;;;5034519;28;20715;-62
2022/01/13 02:46:53;;;;;;;20.63;16.07;;;4.30;99.90;;;;;;5034933;28;20252;-62
2022/01/13 02:49:20;;;;;;;21.80;15.33;;;4.20;99.90;;;;;;5034859;28;20206;-62
2022/01/13 02:51:48;;;;;;;19.83;15.30;;;4.20;99.90;;;;;;5035017;28;20337;-61
2022/01/13 02:54:17;;;;;;;20.30;16.37;;;4.20;99.90;;;;;;5034520;28;20249;-62
2022/01/13 02:56:44;;;;;;;18.70;15.43;;;4.10;99.90;;;;;;5034756;28;20203;-62
2022/01/13 02:59:12;;;;;;;19.03;15.30;;;4.00;99.90;;;;;;5034708;28;20206;-62
2022/01/13 03:01:39;;;;;;;18.30;14.37;;;3.90;99.90;;;;;;5034945;28;20217;-62
2022/01/13 03:04:08;;;;;;;23.97;17.07;;;3.80;99.90;;;;;;5034339;28;20344;-62
2022/01/13 03:06:37;;;;;;;18.10;14.60;;;3.80;99.90;;;;;;5034724;28;20202;-62
2022/01/13 03:09:05;;;;;;;19.40;15.17;;;3.70;99.90;;;;;;5034936;28;20646;-61
2022/01/13 03:11:36;;;;;;;20.00;15.37;;;3.70;99.90;;;;;;5034402;28;20674;-61
2022/01/13 03:14:05;;;;;;;19.37;14.73;;;3.80;99.90;;;;;;5034409;28;20230;-62
2022/01/13 03:16:31;;;;;;;18.87;15.27;;;3.70;99.90;;;;;;5034595;28;20206;-61
2022/01/13 03:18:58;;;;;;;19.57;15.53;;;3.60;99.90;;;;;;5034296;28;20210;-62
2022/01/13 03:21:25;;;;;;;18.87;15.43;;;3.50;99.90;;;;;;5034420;28;20202;-61
2022/01/13 03:23:52;;;;;;;20.77;15.87;;;3.40;99.90;;;;;;5033729;28;20237;-62
2022/01/13 03:26:20;;;;;;;21.43;16.03;;;3.30;99.90;;;;;;5034174;28;20693;-62
2022/01/13 03:28:51;;;;;;;21.73;15.47;;;3.20;99.90;;;;;;5033146;28;20618;-62
2022/01/13 03:31:19;;;;;;;19.70;15.90;;;3.10;99.90;;;;;;5034382;28;20206;-62
2022/01/13 03:33:46;;;;;;;22.77;15.40;;;3.10;99.90;;;;;;5033891;28;20276;-62
2022/01/13 03:36:13;;;;;;;18.60;15.00;;;3.20;99.90;;;;;;5034110;28;20221;-62
2022/01/13 03:38:40;;;;;;;22.27;15.93;;;3.10;99.90;;;;;;5033964;28;20272;-61
2022/01/13 03:41:07;;;;;;;20.27;16.00;;;3.10;99.90;;;;;;5034363;28;20206;-61
2022/01/13 03:43:36;;;;;;;28.33;15.53;;;3.00;99.90;;;;;;5033665;28;20308;-61
2022/01/13 03:46:04;;;;;;;20.23;16.17;;;3.00;99.90;;;;;;5033878;28;20678;-61
2022/01/13 03:48:31;;;;;;;21.27;16.07;;;3.00;99.90;;;;;;5033903;28;20206;-62
2022/01/13 03:50:57;;;;;;;21.13;15.37;;;2.90;99.90;;;;;;5033867;28;20253;-62
2022/01/13 03:54:29;;;;;;;20.30;15.27;;;2.90;99.90;;;;;;5033375;28;20233;-62
2022/01/13 03:58:12;;;;;;;24.70;17.20;;;2.90;99.90;;;;;;4972492;28;20208;-61
2022/01/13 04:01:19;;;;;;;20.90;15.60;;;2.90;99.90;;;;;;4972602;28;20211;-62
2022/01/13 04:03:46;;;;;;;20.40;15.43;;;3.00;99.90;;;;;;5033098;28;20233;-62
2022/01/13 04:06:40;;;;;;;19.77;15.40;;;3.10;99.90;;;;;;5033814;28;20241;-62
2022/01/13 04:09:25;;;;;;;22.77;16.20;;;3.20;99.90;;;;;;5033514;28;20225;-62
2022/01/13 04:11:52;;;;;;;20.97;15.87;;;3.30;99.90;;;;;;5033296;28;20755;-62
2022/01/13 04:14:27;;;;;;;22.20;15.73;;;3.20;99.90;;;;;;5033419;28;20587;-62
2022/01/13 04:16:56;;;;;;;21.27;16.13;;;3.10;99.90;;;;;;5033497;28;20206;-62
2022/01/13 04:19:22;;;;;;;20.20;15.90;;;3.00;99.90;;;;;;5033295;28;20214;-62
2022/01/13 04:21:49;;;;;;;19.87;15.13;;;3.00;99.90;;;;;;5033262;28;20264;-62
2022/01/13 04:24:16;;;;;;;22.93;15.43;;;3.00;99.90;;;;;;5032681;28;20226;-62
2022/01/13 04:26:44;;;;;;;21.40;15.23;;;2.90;99.90;;;;;;5032184;28;20632;-62
2022/01/13 04:29:20;;;;;;;20.00;16.10;;;2.90;99.90;;;;;;5032431;28;20300;-62
2022/01/13 04:31:49;;;;;;;20.83;16.07;;;3.00;99.90;;;;;;5032242;28;20584;-62
2022/01/13 04:34:18;;;;;;;21.10;16.00;;;3.10;99.90;;;;;;5031810;28;20273;-62
2022/01/13 04:36:45;;;;;;;21.23;16.17;;;3.10;99.90;;;;;;5031951;28;20210;-62
2022/01/13 04:39:14;;;;;;;21.00;15.60;;;3.30;99.90;;;;;;5031763;28;20214;-62
2022/01/13 04:41:43;;;;;;;21.47;15.03;;;3.30;99.90;;;;;;5032116;28;20482;-62
2022/01/13 04:44:11;;;;;;;22.23;16.50;;;3.30;99.90;;;;;;5031515;28;20709;-62
2022/01/13 04:46:39;;;;;;;19.77;15.30;;;3.20;99.90;;;;;;5031985;28;20563;-62
2022/01/13 04:49:07;;;;;;;20.60;16.00;;;3.20;99.90;;;;;;5031852;28;20660;-62
2022/01/13 04:51:35;;;;;;;22.47;16.37;;;3.10;99.90;;;;;;5031651;28;20252;-62
2022/01/13 04:54:02;;;;;;;19.97;14.87;;;3.10;99.90;;;;;;5031744;28;20284;-62
2022/01/13 04:56:32;;;;;;;23.27;15.93;;;3.10;99.90;;;;;;5031862;28;20284;-62
2022/01/13 04:58:59;;;;;;;20.27;16.27;;;3.20;99.90;;;;;;5031833;28;20251;-62
2022/01/13 05:01:26;;;;;;;20.60;15.97;;;3.30;99.90;;;;;;5031688;28;20217;-62
2022/01/13 05:03:52;;;;;;;20.97;15.77;;;3.40;99.90;;;;;;5031280;28;20795;-62
2022/01/13 05:06:19;;;;;;;19.07;14.67;;;3.50;99.90;;;;;;5031466;28;20809;-62
2022/01/13 05:08:47;;;;;;;19.67;15.17;;;3.50;99.90;;;;;;5031480;28;20629;-62
2022/01/13 05:11:14;;;;;;;19.70;15.00;;;3.40;99.90;;;;;;5031569;28;20206;-62
2022/01/13 05:13:41;;;;;;;22.43;16.40;;;3.40;99.90;;;;;;5031158;28;20226;-61
2022/01/13 05:16:15;;;;;;;19.57;14.97;;;3.40;99.90;;;;;;5031391;28;20210;-62
2022/01/13 05:18:48;;;;;;;18.43;14.23;;;3.30;99.90;;;;;;5031912;28;20225;-62
2022/01/13 05:21:22;;;;;;;18.27;14.37;;;3.40;99.90;;;;;;5031333;28;20206;-62
2022/01/13 05:23:52;;;;;;;24.03;16.60;;;3.40;99.90;;;;;;4995983;28;1021790;-62
2022/01/13 05:26:19;;;;;;;20.47;15.63;;;3.40;99.90;;;;;;5032222;28;20234;-62
2022/01/13 05:28:46;;;;;;;20.30;15.47;;;3.40;99.90;;;;;;5032171;28;20249;-62
2022/01/13 05:31:13;;;;;;;19.70;15.73;;;3.40;99.90;;;;;;5031892;28;20693;-62
2022/01/13 05:33:40;;;;;;;17.63;14.23;;;3.50;99.90;;;;;;5031881;28;20230;-62
2022/01/13 05:36:07;;;;;;;18.20;13.40;;;3.50;99.90;;;;;;5031835;28;20555;-62
2022/01/13 05:38:33;;;;;;;21.43;15.13;;;3.50;99.90;;;;;;5032102;28;20568;-62
2022/01/13 05:41:01;;;;;;;19.50;14.30;;;3.50;99.90;;;;;;5031859;28;20295;-62
2022/01/13 05:43:28;;;;;;;19.97;14.23;;;3.50;99.90;;;;;;5031748;28;20516;-62
2022/01/13 05:45:55;;;;;;;30.30;23.60;;;3.30;99.90;;;;;;5031643;28;20218;-62
2022/01/13 05:48:21;;;;;;;20.00;15.00;;;3.20;99.90;;;;;;5031921;28;20218;-62
2022/01/13 05:50:48;;;;;;;19.40;15.73;;;3.10;99.90;;;;;;5031874;28;20260;-62
2022/01/13 05:53:15;;;;;;;20.17;14.87;;;3.10;99.90;;;;;;5035028;28;20206;-62
2022/01/13 05:55:41;;;;;;;21.60;14.07;;;3.20;99.90;;;;;;5035745;28;20198;-62
2022/01/13 05:58:09;;;;;;;21.40;14.60;;;3.10;99.90;;;;;;5035732;28;20210;-62
2022/01/13 06:00:37;;;;;;;18.73;14.47;;;3.00;99.90;;;;;;5035869;28;20210;-63
2022/01/13 06:03:04;;;;;;;18.80;14.90;;;3.00;99.90;;;;;;5035574;28;20202;-62
2022/01/13 06:05:31;;;;;;;20.57;15.07;;;2.90;99.90;;;;;;5035569;28;20272;-62
2022/01/13 06:07:58;;;;;;;19.70;13.63;;;2.90;99.90;;;;;;5035658;28;20260;-62
2022/01/13 06:10:25;;;;;;;22.47;15.63;;;2.90;99.90;;;;;;5035302;28;20295;-62
2022/01/13 06:12:53;;;;;;;19.43;14.73;;;2.80;99.90;;;;;;5035582;28;20210;-62
2022/01/13 06:15:23;;;;;;;18.17;14.50;;;2.80;99.90;;;;;;5035365;28;20705;-62
2022/01/13 06:17:52;;;;;;;22.80;15.90;;;2.90;99.90;;;;;;5035790;28;20256;-62
2022/01/13 06:20:20;;;;;;;18.33;14.07;;;3.00;99.90;;;;;;5035826;28;20229;-62
2022/01/13 06:22:48;;;;;;;17.73;13.23;;;3.10;99.90;;;;;;5035454;28;20256;-62
2022/01/13 06:25:16;;;;;;;19.23;14.83;;;3.00;99.90;;;;;;5035410;28;20745;-63
2022/01/13 06:27:43;;;;;;;17.40;13.53;;;2.90;99.90;;;;;;5035248;28;20739;-62
2022/01/13 06:30:13;;;;;;;17.60;13.97;;;2.90;99.90;;;;;;5035328;28;20214;-63
2022/01/13 06:32:41;;;;;;;18.37;14.23;;;2.90;99.90;;;;;;5035322;28;20749;-63
2022/01/13 06:35:09;;;;;;;19.23;14.60;;;2.90;99.90;;;;;;5035002;28;20264;-62
2022/01/13 06:37:36;;;;;;;20.73;14.43;;;3.00;99.90;;;;;;5034991;28;20264;-63
2022/01/13 06:40:05;;;;;;;18.30;13.70;;;2.90;99.90;;;;;;5035098;28;20206;-62
2022/01/13 06:42:31;;;;;;;18.67;14.00;;;2.90;99.90;;;;;;5035416;28;20233;-63
2022/01/13 06:44:58;;;;;;;17.33;13.07;;;2.90;99.90;;;;;;5034735;28;20279;-63
2022/01/13 06:47:25;;;;;;;15.30;12.43;;;2.80;99.90;;;;;;5034927;28;20249;-63
2022/01/13 06:49:53;;;;;;;19.47;13.77;;;2.90;99.90;;;;;;5034968;28;20206;-63
2022/01/13 06:52:20;;;;;;;18.83;13.70;;;3.00;99.90;;;;;;5034682;28;20240;-63
2022/01/13 06:54:46;;;;;;;17.70;13.13;;;3.10;99.90;;;;;;5034825;28;20230;-63
2022/01/13 06:57:13;;;;;;;17.80;14.10;;;3.10;99.90;;;;;;5034957;28;20206;-62
2022/01/13 06:59:40;;;;;;;17.47;13.27;;;3.10;99.90;;;;;;5034748;28;20298;-63
2022/01/13 07:02:07;;;;;;;19.70;12.90;;;3.20;99.90;;;;;;5034778;28;20207;-63
2022/01/13 07:04:34;;;;;;;17.20;13.13;;;3.30;99.90;;;;;;5033890;28;20226;-63
2022/01/13 07:07:03;;;;;;;15.30;11.73;;;3.30;99.90;;;;;;5034359;28;20631;-63
2022/01/13 07:09:29;;;;;;;18.00;14.03;;;3.30;99.90;;;;;;5034628;28;20535;-63
2022/01/13 07:11:56;;;;;;;20.70;14.00;;;3.30;99.90;;;;;;5034779;28;20237;-62
2022/01/13 07:14:23;;;;;;;16.23;12.30;;;3.40;99.90;;;;;;5034233;28;20226;-63
2022/01/13 07:16:49;;;;;;;18.13;12.57;;;3.40;99.90;;;;;;5034219;28;20624;-62
2022/01/13 07:19:16;;;;;;;19.10;12.93;;;3.50;99.90;;;;;;5034103;28;20682;-62
2022/01/13 07:21:44;;;;;;;18.03;12.30;;;3.50;99.90;;;;;;5034430;28;20210;-61
2022/01/13 07:24:13;;;;;;;14.80;12.03;;;3.50;99.90;;;;;;5033769;28;20280;-61
2022/01/13 07:26:40;;;;;;;16.77;12.73;;;3.60;99.90;;;;;;5034206;28;20229;-62
2022/01/13 07:29:08;;;;;;;19.10;12.80;;;3.70;99.90;;;;;;5034280;28;20206;-62
2022/01/13 07:31:35;;;;;;;16.37;11.97;;;3.80;99.90;;;;;;5034107;28;20726;-63
2022/01/13 07:34:03;;;;;;;15.13;11.67;;;3.70;99.90;;;;;;5034224;28;20226;-63
2022/01/13 07:36:30;;;;;;;15.07;11.30;;;3.70;99.90;;;;;;5034173;28;20207;-62
2022/01/13 07:38:56;;;;;;;14.37;11.20;;;3.70;99.90;;;;;;5034001;28;20214;-62
2022/01/13 07:41:24;;;;;;;15.40;11.40;;;3.80;99.90;;;;;;5034755;28;20210;-63
2022/01/13 07:43:54;;;;;;;14.50;11.10;;;3.80;99.90;;;;;;5033816;28;20234;-63
2022/01/13 07:46:22;;;;;;;14.40;11.10;;;3.80;99.90;;;;;;5033865;28;20229;-63
2022/01/13 07:48:49;;;;;;;15.27;10.97;;;3.70;99.90;;;;;;5033884;28;20206;-63
2022/01/13 07:51:16;;;;;;;14.67;11.30;;;3.70;99.90;;;;;;5033920;28;20214;-63
2022/01/13 07:53:43;;;;;;;15.33;11.50;;;3.70;99.90;;;;;;5033607;28;20291;-63
2022/01/13 07:56:10;;;;;;;14.00;11.07;;;3.80;99.90;;;;;;5033736;28;20206;-62
2022/01/13 07:58:40;;;;;;;14.03;10.70;;;3.80;99.90;;;;;;5033489;28;20210;-62
2022/01/13 08:01:07;;;;;;;15.87;11.60;;;3.70;99.90;;;;;;5033625;28;20520;-63
2022/01/13 08:03:34;;;;;;;15.43;11.60;;;3.70;99.90;;;;;;5033445;28;20726;-62
2022/01/13 08:06:01;;;;;;;15.93;12.30;;;3.70;99.90;;;;;;5033362;28;20252;-61
2022/01/13 08:08:28;;;;;;;16.07;11.07;;;3.90;99.90;;;;;;5033580;28;20210;-62
2022/01/13 08:10:55;;;;;;;14.83;11.73;;;3.90;99.90;;;;;;5033408;28;20260;-62
2022/01/13 08:13:21;;;;;;;18.50;11.70;;;4.10;99.90;;;;;;5033111;28;20226;-62
2022/01/13 08:15:52;;;;;;;18.70;14.60;;;4.20;99.90;;;;;;5032425;28;20233;-63
2022/01/13 08:21:03;;;;;;;14.77;11.07;;;4.40;99.90;;;;;;5033352;28;20217;-63
2022/01/13 08:23:30;;;;;;;16.17;11.60;;;4.50;99.90;;;;;;5033119;28;20237;-63
2022/01/13 08:25:57;;;;;;;15.87;11.40;;;4.50;99.90;;;;;;5032942;28;20237;-62
2022/01/13 08:28:25;;;;;;;15.40;11.70;;;4.50;99.90;;;;;;5033063;28;20210;-63
2022/01/13 08:30:53;;;;;;;16.47;11.23;;;4.50;99.90;;;;;;5032948;28;20663;-62
2022/01/13 08:33:22;;;;;;;15.83;11.80;;;4.50;99.90;;;;;;5033002;28;20238;-62
2022/01/13 08:35:49;;;;;;;15.47;11.53;;;4.50;99.90;;;;;;5032775;28;20198;-62
2022/01/13 08:38:18;;;;;;;16.30;11.73;;;4.60;99.90;;;;;;5032691;28;20731;-62
2022/01/13 08:40:46;;;;;;;17.77;12.27;;;4.50;99.90;;;;;;5033001;28;20217;-63
2022/01/13 08:43:13;;;;;;;16.30;11.73;;;4.40;99.90;;;;;;5032959;28;20206;-63
2022/01/13 08:45:41;;;;;;;15.80;12.50;;;4.20;99.90;;;;;;5032787;28;20218;-63
2022/01/13 08:48:09;;;;;;;18.70;13.13;;;4.30;99.90;;;;;;5032724;28;20213;-62
2022/01/13 08:50:36;;;;;;;19.10;13.77;;;4.40;99.90;;;;;;5032613;28;20214;-62
2022/01/13 08:53:03;;;;;;;16.13;12.60;;;4.50;99.90;;;;;;5032428;28;20206;-62
2022/01/13 08:55:30;;;;;;;20.03;14.83;;;4.60;99.90;;;;;;5032487;28;20206;-63
2022/01/13 08:57:56;;;;;;;16.90;13.13;;;4.70;99.90;;;;;;5032529;28;20712;-62
2022/01/13 09:00:23;;;;;;;18.10;13.37;;;4.80;99.90;;;;;;5032771;28;20210;-63
2022/01/13 09:02:50;;;;;;;16.83;12.33;;;4.90;99.90;;;;;;5032759;28;20523;-62
2022/01/13 09:05:20;;;;;;;16.57;12.47;;;5.10;99.90;;;;;;5032141;28;20264;-61
2022/01/13 09:07:47;;;;;;;16.40;11.10;;;5.30;99.90;;;;;;5032393;28;20641;-62
2022/01/13 09:10:16;;;;;;;14.07;10.80;;;5.40;99.90;;;;;;5032908;28;20229;-63
2022/01/13 09:12:43;;;;;;;13.33;10.20;;;5.60;99.90;;;;;;5032672;28;20202;-63
2022/01/13 09:15:19;;;;;;;12.23;10.03;;;5.60;99.90;;;;;;5032036;28;20701;-62
2022/01/13 09:17:51;;;;;;;12.27;9.87;;;5.70;99.90;;;;;;5032750;28;20321;-63
2022/01/13 09:20:19;;;;;;;9.97;7.90;;;5.80;99.90;;;;;;5032509;28;20228;-62
2022/01/13 09:22:47;;;;;;;10.13;6.30;;;5.90;99.90;;;;;;5032413;28;20213;-62
2022/01/13 09:25:14;;;;;;;5.30;4.27;;;6.00;99.90;;;;;;5032066;28;20861;-61
2022/01/13 09:27:41;;;;;;;4.90;3.97;;;5.90;99.90;;;;;;5032151;28;20288;-61
2022/01/13 09:30:10;;;;;;;5.20;4.13;;;5.70;99.90;;;;;;5032025;28;20297;-63
2022/01/13 09:32:37;;;;;;;7.17;4.20;;;5.60;99.90;;;;;;5032117;28;20221;-61
2022/01/13 09:35:06;;;;;;;4.87;4.00;;;5.70;99.90;;;;;;5032024;28;20230;-62
2022/01/13 09:37:34;;;;;;;5.70;4.83;;;5.60;99.90;;;;;;5031899;28;20615;-62
2022/01/13 09:40:01;;;;;;;7.40;5.83;;;5.60;99.90;;;;;;5032102;28;20202;-62
2022/01/13 09:42:30;;;;;;;8.97;7.13;;;5.50;99.90;;;;;;5032175;28;20217;-62
2022/01/13 09:44:57;;;;;;;8.30;6.53;;;5.50;99.90;;;;;;5032402;28;20226;-61
2022/01/13 09:47:25;;;;;;;8.63;5.87;;;5.50;99.90;;;;;;5031919;28;20229;-63
2022/01/13 09:49:52;;;;;;;7.43;6.13;;;5.50;99.90;;;;;;5032013;28;20209;-62
2022/01/13 09:52:20;;;;;;;9.07;5.90;;;5.50;99.90;;;;;;5032428;28;20217;-62
2022/01/13 09:54:49;;;;;;;8.50;5.90;;;5.30;99.90;;;;;;5032907;28;20233;-61
2022/01/13 09:57:16;;;;;;;11.17;6.80;;;5.00;99.90;;;;;;5031976;28;20245;-61
2022/01/13 09:59:42;;;;;;;8.03;6.07;;;4.80;99.90;;;;;;5031802;28;20260;-61
2022/01/13 10:02:09;;;;;;;8.00;6.23;;;5.00;99.90;;;;;;5032012;28;20225;-61
2022/01/13 10:04:50;;;;;;;9.20;6.93;;;5.10;99.90;;;;;;5031651;28;20645;-62
2022/01/13 10:07:30;;;;;;;7.73;6.30;;;5.00;99.90;;;;;;5031826;28;20287;-63
2022/01/13 10:10:00;;;;;;;11.47;8.57;;;4.80;99.90;;;;;;5031871;28;20214;-62
2022/01/13 10:12:29;;;;;;;8.40;6.63;;;4.60;99.90;;;;;;5031828;28;20682;-63
2022/01/13 10:17:49;;;;;;;10.50;7.23;;;4.70;99.90;;;;;;5033202;28;20201;-61
2022/01/13 10:20:18;;;;;;;10.80;8.67;;;4.90;99.90;;;;;;5032275;28;20210;-61
2022/01/13 10:22:46;;;;;;;12.20;9.27;;;5.00;99.90;;;;;;5031630;28;20198;-62
2022/01/13 10:25:29;;;;;;;11.00;8.30;;;4.80;99.90;;;;;;5031854;28;20234;-61
2022/01/13 10:27:56;;;;;;;10.03;7.80;;;4.80;99.90;;;;;;5032945;28;20230;-62
2022/01/13 10:30:25;;;;;;;13.13;8.83;;;4.70;99.90;;;;;;5031735;28;20206;-62
2022/01/13 10:32:53;;;;;;;11.07;7.90;;;4.60;99.90;;;;;;5031583;28;20211;-61
2022/01/13 10:35:22;;;;;;;12.27;9.10;;;4.40;99.90;;;;;;5031328;28;20261;-62
2022/01/13 10:37:54;;;;;;;10.50;8.23;;;4.40;99.90;;;;;;5032317;28;20206;-62
2022/01/13 10:40:24;;;;;;;11.03;8.33;;;4.40;99.90;;;;;;5035249;28;20670;-62
2022/01/13 10:43:10;;;;;;;10.27;7.97;;;4.30;99.90;;;;;;5035064;28;20210;-62
2022/01/13 10:45:40;;;;;;;12.60;9.00;;;4.30;99.90;;;;;;5034807;28;20268;-62
2022/01/13 10:48:09;;;;;;;12.23;9.47;;;4.30;99.90;;;;;;5035272;28;20257;-62
2022/01/13 10:50:38;;;;;;;12.53;8.90;;;4.20;99.90;;;;;;5034915;28;20206;-62
2022/01/13 10:53:08;;;;;;;11.23;9.00;;;4.20;99.90;;;;;;5034867;28;20217;-61
2022/01/13 10:55:40;;;;;;;12.50;9.03;;;4.00;99.90;;;;;;5035034;28;20565;-61
2022/01/13 10:58:09;;;;;;;10.97;8.43;;;4.10;99.90;;;;;;5034758;28;20210;-62
2022/01/13 11:00:36;;;;;;;15.60;11.30;;;4.20;99.90;;;;;;5035181;28;20213;-60
2022/01/13 11:03:09;;;;;;;11.60;8.63;;;4.10;99.90;;;;;;5034729;28;20236;-62
2022/01/13 11:05:40;;;;;;;10.57;8.40;;;4.10;99.90;;;;;;5034525;28;20214;-61
2022/01/13 11:08:08;;;;;;;11.30;9.00;;;4.20;99.90;;;;;;5034164;28;20631;-61
2022/01/13 11:10:36;;;;;;;11.50;8.50;;;4.20;99.90;;;;;;5034588;28;20238;-63
2022/01/13 11:13:05;;;;;;;12.00;8.77;;;4.30;99.90;;;;;;5034392;28;20206;-61
2022/01/13 11:15:34;;;;;;;11.30;8.47;;;4.40;99.90;;;;;;5034486;28;20302;-63
2022/01/13 11:18:02;;;;;;;11.73;9.13;;;4.60;99.90;;;;;;5034631;28;20206;-61
2022/01/13 11:20:29;;;;;;;12.50;8.23;;;4.70;99.90;;;;;;5034852;28;20210;-64
2022/01/13 11:22:58;;;;;;;9.83;7.80;;;4.80;99.90;;;;;;5034575;28;20206;-62
2022/01/13 11:25:27;;;;;;;11.53;8.40;;;4.80;99.90;;;;;;5034000;28;20297;-61
2022/01/13 11:27:56;;;;;;;10.30;8.30;;;4.90;99.90;;;;;;5033836;28;20261;-61
2022/01/13 11:30:25;;;;;;;9.80;7.50;;;5.10;99.90;;;;;;5034186;28;20301;-62
2022/01/13 11:32:53;;;;;;;10.93;7.93;;;5.30;99.90;;;;;;5034257;28;20280;-62
2022/01/13 11:35:22;;;;;;;12.50;9.53;;;5.30;99.90;;;;;;5034033;28;20219;-62
2022/01/13 11:37:50;;;;;;;9.47;7.87;;;5.40;99.90;;;;;;5034152;28;20285;-62
2022/01/13 11:40:47;;;;;;;9.53;7.80;;;5.50;99.90;;;;;;5034002;28;20202;-61
2022/01/13 11:43:39;;;;;;;10.47;7.70;;;5.50;99.90;;;;;;4972629;28;20327;-62
2022/01/13 11:46:20;;;;;;;11.27;8.03;;;5.60;99.90;;;;;;5015816;28;20217;-61
2022/01/13 11:49:18;;;;;;;8.63;6.97;;;5.60;99.90;;;;;;5034315;28;20206;-63
2022/01/13 11:51:48;;;;;;;8.67;6.70;;;5.80;99.90;;;;;;5021643;28;20272;-62
2022/01/13 11:54:26;;;;;;;8.83;6.93;;;5.90;99.90;;;;;;5033855;28;20240;-62
2022/01/13 11:57:15;;;;;;;8.87;6.90;;;6.00;99.90;;;;;;5033883;28;20664;-61
2022/01/13 12:00:29;;;;;;;8.97;7.00;;;5.90;99.90;;;;;;5033871;28;20223;-62
2022/01/13 12:02:57;;;;;;;8.97;7.00;;;5.90;99.90;;;;;;5035374;28;20708;-67
2022/01/13 12:05:26;;;;;;;9.23;7.00;;;6.10;99.90;;;;;;5034499;28;20214;-69
2022/01/13 12:07:55;;;;;;;8.43;6.70;;;6.20;99.90;;;;;;5034422;28;20233;-69
2022/01/13 12:10:51;;;;;;;7.60;6.00;;;6.20;99.90;;;;;;5033282;28;20560;-62
2022/01/13 12:13:40;;;;;;;8.63;6.53;;;6.30;99.90;;;;;;5032924;28;20789;-63
2022/01/13 12:16:08;;;;;;;8.23;6.40;;;6.30;99.90;;;;;;5033435;28;20651;-64
2022/01/13 12:19:08;;;;;;;8.20;6.13;;;6.40;99.90;;;;;;5033169;28;20206;-64
2022/01/13 12:21:41;;;;;;;8.37;6.57;;;6.60;99.90;;;;;;5000057;28;20206;-64
2022/01/13 12:24:08;;;;;;;7.43;6.40;;;6.90;99.90;;;;;;5051329;22;20266;-59
2022/01/13 12:26:49;;;;;;;7.83;5.70;;;7.10;99.90;;;;;;5013039;28;20233;-59
2022/01/13 12:29:19;;;;;;;7.93;6.30;;;7.30;99.90;;;;;;5013497;28;20215;-59
2022/01/13 12:31:53;;;;;;;8.97;6.77;;;7.30;99.90;;;;;;5013270;28;20749;-59
2022/01/13 12:34:44;;;;;;;8.87;6.80;;;7.20;99.90;;;;;;5013204;28;20237;-59
2022/01/13 12:37:27;;;;;;;8.63;6.57;;;7.30;99.90;;;;;;5013515;28;20206;-59
2022/01/13 12:39:59;;;;;;;10.23;6.00;;;7.40;99.90;;;;;;5014081;28;20623;-59
2022/01/13 12:42:31;;;;;;;10.40;7.40;;;7.50;99.90;;;;;;5013066;28;20214;-60
2022/01/13 12:47:54;;;;;;;9.05;5.70;;;7.70;99.90;;;;;;4952240;29;20424;-63
2022/01/13 12:50:24;;;;;;;8.03;6.43;;;7.50;99.90;;;;;;4995726;28;20207;-61
2022/01/13 12:52:56;;;;;;;8.43;6.23;;;7.40;99.90;;;;;;5012921;28;20294;-60
2022/01/13 12:55:23;;;;;;;11.23;6.27;;;7.30;99.90;;;;;;5012886;28;20223;-61
2022/01/13 12:57:53;;;;;;;7.87;6.10;;;7.40;99.90;;;;;;5005042;28;20612;-61
2022/01/13 13:00:22;;;;;;;9.20;5.83;;;7.50;99.90;;;;;;5012507;28;20199;-63
2022/01/13 13:02:55;;;;;;;7.17;5.73;;;7.50;99.90;;;;;;5012705;28;20211;-65
2022/01/13 13:05:39;;;;;;;7.97;5.33;;;7.70;99.90;;;;;;5012332;28;20227;-65
2022/01/13 13:08:09;;;;;;;6.93;5.17;;;7.70;99.90;;;;;;5012960;28;20227;-64